Terminal Aerodrome Forecast
Issued by NWS Glasgow, MT

Home | Current Version | Previous Version | Text Only | Print | Product List | Glossary On
Versions: 1 2 3 4 5 6 7 8 9 10 11 12 13 14 15 16
267
FTUS45 KGGW 142321
TAFGGW
TAF
KGGW 142321Z 1500/1524 30008KT P6SM SCT250
     FM150600 28006KT P6SM BKN250
     FM151200 VRB03KT P6SM -FZRA BKN110
     FM151800 29012KT P6SM VCSH BKN025 BKN045=

USA.gov is the U.S. government's official web portal to all federal, state and local government web resources and services.